sensor_id;sensor_type;location;lat;lon;timestamp;P1;durP1;ratioP1;P2;durP2;ratioP2
59998;SDS011;45859;51.378;6.736;2022-07-17T00:01:10;4.50;;;1.10;;
59998;SDS011;45859;51.378;6.736;2022-07-17T00:03:37;4.63;;;1.30;;
59998;SDS011;45859;51.378;6.736;2022-07-17T00:06:03;3.50;;;1.67;;
59998;SDS011;45859;51.378;6.736;2022-07-17T00:08:28;3.53;;;1.30;;
59998;SDS011;45859;51.378;6.736;2022-07-17T00:10:56;4.97;;;1.40;;
59998;SDS011;45859;51.378;6.736;2022-07-17T00:13:22;3.03;;;1.30;;
59998;SDS011;45859;51.378;6.736;2022-07-17T00:15:49;3.83;;;1.43;;
59998;SDS011;45859;51.378;6.736;2022-07-17T00:18:14;3.03;;;1.23;;
59998;SDS011;45859;51.378;6.736;2022-07-17T00:20:40;5.07;;;1.40;;
59998;SDS011;45859;51.378;6.736;2022-07-17T00:23:06;4.20;;;1.33;;
59998;SDS011;45859;51.378;6.736;2022-07-17T00:25:31;5.90;;;1.70;;
59998;SDS011;45859;51.378;6.736;2022-07-17T00:27:57;3.13;;;1.20;;
59998;SDS011;45859;51.378;6.736;2022-07-17T00:30:23;6.83;;;1.70;;
59998;SDS011;45859;51.378;6.736;2022-07-17T00:32:48;5.77;;;1.60;;
59998;SDS011;45859;51.378;6.736;2022-07-17T00:35:14;4.03;;;1.40;;
59998;SDS011;45859;51.378;6.736;2022-07-17T00:37:40;4.60;;;1.50;;
59998;SDS011;45859;51.378;6.736;2022-07-17T00:40:08;4.60;;;1.80;;
59998;SDS011;45859;51.378;6.736;2022-07-17T00:42:35;4.77;;;1.37;;
59998;SDS011;45859;51.378;6.736;2022-07-17T00:45:03;4.90;;;1.47;;
59998;SDS011;45859;51.378;6.736;2022-07-17T00:47:28;4.60;;;1.63;;
59998;SDS011;45859;51.378;6.736;2022-07-17T00:49:54;4.93;;;1.57;;
59998;SDS011;45859;51.378;6.736;2022-07-17T00:52:20;3.20;;;1.57;;
59998;SDS011;45859;51.378;6.736;2022-07-17T00:54:46;3.27;;;1.40;;
59998;SDS011;45859;51.378;6.736;2022-07-17T00:57:12;4.03;;;1.37;;
59998;SDS011;45859;51.378;6.736;2022-07-17T00:59:40;4.73;;;1.70;;
59998;SDS011;45859;51.378;6.736;2022-07-17T01:02:07;5.27;;;1.47;;
59998;SDS011;45859;51.378;6.736;2022-07-17T01:04:36;3.67;;;1.57;;
59998;SDS011;45859;51.378;6.736;2022-07-17T01:07:03;3.87;;;1.73;;
59998;SDS011;45859;51.378;6.736;2022-07-17T01:09:30;4.37;;;1.70;;
59998;SDS011;45859;51.378;6.736;2022-07-17T01:11:57;6.10;;;1.50;;
59998;SDS011;45859;51.378;6.736;2022-07-17T01:14:23;4.17;;;1.57;;
59998;SDS011;45859;51.378;6.736;2022-07-17T01:16:51;3.53;;;1.67;;
59998;SDS011;45859;51.378;6.736;2022-07-17T01:19:17;3.23;;;1.70;;
59998;SDS011;45859;51.378;6.736;2022-07-17T01:21:44;4.17;;;1.50;;
59998;SDS011;45859;51.378;6.736;2022-07-17T01:24:13;7.30;;;2.07;;
59998;SDS011;45859;51.378;6.736;2022-07-17T01:26:43;5.70;;;1.67;;
59998;SDS011;45859;51.378;6.736;2022-07-17T01:29:10;3.20;;;1.50;;
59998;SDS011;45859;51.378;6.736;2022-07-17T01:31:38;6.87;;;1.87;;
59998;SDS011;45859;51.378;6.736;2022-07-17T01:34:04;5.93;;;1.80;;
59998;SDS011;45859;51.378;6.736;2022-07-17T01:36:31;4.43;;;1.90;;
59998;SDS011;45859;51.378;6.736;2022-07-17T01:38:56;5.03;;;1.87;;
59998;SDS011;45859;51.378;6.736;2022-07-17T01:41:22;4.33;;;1.70;;
59998;SDS011;45859;51.378;6.736;2022-07-17T01:43:48;4.73;;;1.53;;
59998;SDS011;45859;51.378;6.736;2022-07-17T01:46:14;4.43;;;1.70;;
59998;SDS011;45859;51.378;6.736;2022-07-17T01:48:39;4.70;;;1.60;;
59998;SDS011;45859;51.378;6.736;2022-07-17T01:51:05;4.27;;;1.80;;
59998;SDS011;45859;51.378;6.736;2022-07-17T01:53:31;5.47;;;1.73;;
59998;SDS011;45859;51.378;6.736;2022-07-17T01:55:57;4.93;;;1.80;;
59998;SDS011;45859;51.378;6.736;2022-07-17T01:58:22;3.40;;;1.77;;
59998;SDS011;45859;51.378;6.736;2022-07-17T02:00:48;6.07;;;2.20;;
59998;SDS011;45859;51.378;6.736;2022-07-17T02:03:14;4.57;;;1.80;;
59998;SDS011;45859;51.378;6.736;2022-07-17T02:05:39;5.80;;;1.90;;
59998;SDS011;45859;51.378;6.736;2022-07-17T02:08:05;8.20;;;1.57;;
59998;SDS011;45859;51.378;6.736;2022-07-17T02:10:30;6.83;;;1.53;;
59998;SDS011;45859;51.378;6.736;2022-07-17T02:12:56;6.17;;;1.63;;
59998;SDS011;45859;51.378;6.736;2022-07-17T02:15:23;9.50;;;2.53;;
59998;SDS011;45859;51.378;6.736;2022-07-17T02:17:49;7.53;;;2.47;;
59998;SDS011;45859;51.378;6.736;2022-07-17T02:20:15;6.97;;;1.93;;
59998;SDS011;45859;51.378;6.736;2022-07-17T02:22:41;5.07;;;2.00;;
59998;SDS011;45859;51.378;6.736;2022-07-17T02:25:07;5.87;;;2.17;;
59998;SDS011;45859;51.378;6.736;2022-07-17T02:27:34;3.47;;;1.70;;
59998;SDS011;45859;51.378;6.736;2022-07-17T02:30:01;5.97;;;1.10;;
59998;SDS011;45859;51.378;6.736;2022-07-17T02:32:29;2.03;;;1.30;;
59998;SDS011;45859;51.378;6.736;2022-07-17T02:34:54;4.90;;;1.20;;
59998;SDS011;45859;51.378;6.736;2022-07-17T02:37:20;3.03;;;1.40;;
59998;SDS011;45859;51.378;6.736;2022-07-17T02:39:45;2.27;;;0.80;;
59998;SDS011;45859;51.378;6.736;2022-07-17T02:44:50;4.53;;;1.80;;
59998;SDS011;45859;51.378;6.736;2022-07-17T02:47:20;7.93;;;2.00;;
59998;SDS011;45859;51.378;6.736;2022-07-17T02:49:52;5.23;;;2.10;;
59998;SDS011;45859;51.378;6.736;2022-07-17T02:52:18;6.83;;;1.60;;
59998;SDS011;45859;51.378;6.736;2022-07-17T02:54:44;9.33;;;1.30;;
59998;SDS011;45859;51.378;6.736;2022-07-17T02:57:10;5.67;;;1.20;;
59998;SDS011;45859;51.378;6.736;2022-07-17T02:59:37;9.87;;;2.20;;
59998;SDS011;45859;51.378;6.736;2022-07-17T03:02:04;2.00;;;1.07;;
59998;SDS011;45859;51.378;6.736;2022-07-17T03:04:30;3.13;;;1.77;;
59998;SDS011;45859;51.378;6.736;2022-07-17T03:06:56;3.87;;;1.23;;
59998;SDS011;45859;51.378;6.736;2022-07-17T03:09:22;6.63;;;1.77;;
59998;SDS011;45859;51.378;6.736;2022-07-17T03:11:48;5.27;;;1.53;;
59998;SDS011;45859;51.378;6.736;2022-07-17T03:14:13;4.67;;;1.40;;
59998;SDS011;45859;51.378;6.736;2022-07-17T03:16:39;6.57;;;1.17;;
59998;SDS011;45859;51.378;6.736;2022-07-17T03:19:05;4.47;;;1.40;;
59998;SDS011;45859;51.378;6.736;2022-07-17T03:21:30;1.77;;;1.13;;
59998;SDS011;45859;51.378;6.736;2022-07-17T03:23:56;5.67;;;2.07;;
59998;SDS011;45859;51.378;6.736;2022-07-17T03:26:22;5.67;;;2.40;;
59998;SDS011;45859;51.378;6.736;2022-07-17T03:28:47;4.73;;;2.53;;
59998;SDS011;45859;51.378;6.736;2022-07-17T03:31:13;1.67;;;1.13;;
59998;SDS011;45859;51.378;6.736;2022-07-17T03:33:39;4.50;;;1.50;;
59998;SDS011;45859;51.378;6.736;2022-07-17T03:36:05;5.23;;;2.40;;
59998;SDS011;45859;51.378;6.736;2022-07-17T03:38:31;2.53;;;1.20;;
59998;SDS011;45859;51.378;6.736;2022-07-17T03:40:58;4.93;;;1.03;;
59998;SDS011;45859;51.378;6.736;2022-07-17T03:43:24;4.40;;;2.23;;
59998;SDS011;45859;51.378;6.736;2022-07-17T03:45:49;6.67;;;2.57;;
59998;SDS011;45859;51.378;6.736;2022-07-17T03:48:15;5.10;;;2.30;;
59998;SDS011;45859;51.378;6.736;2022-07-17T03:50:41;6.10;;;1.23;;
59998;SDS011;45859;51.378;6.736;2022-07-17T03:53:07;2.87;;;0.90;;
59998;SDS011;45859;51.378;6.736;2022-07-17T03:55:33;3.10;;;1.40;;
59998;SDS011;45859;51.378;6.736;2022-07-17T03:57:59;4.27;;;1.23;;
59998;SDS011;45859;51.378;6.736;2022-07-17T04:00:25;5.40;;;2.17;;
59998;SDS011;45859;51.378;6.736;2022-07-17T04:02:50;2.10;;;1.10;;
59998;SDS011;45859;51.378;6.736;2022-07-17T04:05:16;5.47;;;1.17;;
59998;SDS011;45859;51.378;6.736;2022-07-17T04:07:42;1.80;;;1.37;;
59998;SDS011;45859;51.378;6.736;2022-07-17T04:10:09;2.60;;;1.37;;
59998;SDS011;45859;51.378;6.736;2022-07-17T04:12:37;9.37;;;3.03;;
59998;SDS011;45859;51.378;6.736;2022-07-17T04:15:03;2.47;;;1.37;;
59998;SDS011;45859;51.378;6.736;2022-07-17T04:17:30;4.00;;;1.00;;
59998;SDS011;45859;51.378;6.736;2022-07-17T04:19:55;1.63;;;1.03;;
59998;SDS011;45859;51.378;6.736;2022-07-17T04:22:21;3.77;;;1.80;;
59998;SDS011;45859;51.378;6.736;2022-07-17T04:24:47;5.77;;;2.37;;
59998;SDS011;45859;51.378;6.736;2022-07-17T04:27:14;4.87;;;2.70;;
59998;SDS011;45859;51.378;6.736;2022-07-17T04:29:40;4.93;;;1.63;;
59998;SDS011;45859;51.378;6.736;2022-07-17T04:32:05;1.67;;;1.20;;
59998;SDS011;45859;51.378;6.736;2022-07-17T04:34:31;2.87;;;1.40;;
59998;SDS011;45859;51.378;6.736;2022-07-17T04:36:58;4.90;;;2.77;;
59998;SDS011;45859;51.378;6.736;2022-07-17T04:39:24;4.97;;;2.30;;
59998;SDS011;45859;51.378;6.736;2022-07-17T04:41:50;4.53;;;2.17;;
59998;SDS011;45859;51.378;6.736;2022-07-17T04:44:16;6.10;;;2.53;;
59998;SDS011;45859;51.378;6.736;2022-07-17T04:46:42;3.77;;;2.07;;
59998;SDS011;45859;51.378;6.736;2022-07-17T04:49:08;6.17;;;2.60;;
59998;SDS011;45859;51.378;6.736;2022-07-17T04:51:34;4.93;;;2.43;;
59998;SDS011;45859;51.378;6.736;2022-07-17T04:54:00;4.53;;;2.03;;
59998;SDS011;45859;51.378;6.736;2022-07-17T04:56:25;4.17;;;2.37;;
59998;SDS011;45859;51.378;6.736;2022-07-17T04:58:51;8.93;;;2.83;;
59998;SDS011;45859;51.378;6.736;2022-07-17T05:01:17;4.90;;;2.53;;
59998;SDS011;45859;51.378;6.736;2022-07-17T05:03:43;7.93;;;2.67;;
59998;SDS011;45859;51.378;6.736;2022-07-17T05:06:09;8.70;;;2.63;;
59998;SDS011;45859;51.378;6.736;2022-07-17T05:08:35;6.13;;;2.63;;
59998;SDS011;45859;51.378;6.736;2022-07-17T05:11:01;6.60;;;2.93;;
59998;SDS011;45859;51.378;6.736;2022-07-17T05:13:27;5.27;;;2.60;;
59998;SDS011;45859;51.378;6.736;2022-07-17T05:15:52;6.97;;;2.70;;
59998;SDS011;45859;51.378;6.736;2022-07-17T05:18:18;7.17;;;2.50;;
59998;SDS011;45859;51.378;6.736;2022-07-17T05:20:44;7.70;;;2.80;;
59998;SDS011;45859;51.378;6.736;2022-07-17T05:23:10;4.23;;;2.47;;
59998;SDS011;45859;51.378;6.736;2022-07-17T05:25:35;5.33;;;2.40;;
59998;SDS011;45859;51.378;6.736;2022-07-17T05:28:01;5.43;;;2.40;;
59998;SDS011;45859;51.378;6.736;2022-07-17T05:30:27;4.83;;;2.50;;
59998;SDS011;45859;51.378;6.736;2022-07-17T05:32:53;5.03;;;2.60;;
59998;SDS011;45859;51.378;6.736;2022-07-17T05:35:19;6.50;;;2.80;;
59998;SDS011;45859;51.378;6.736;2022-07-17T05:37:45;6.23;;;2.63;;
59998;SDS011;45859;51.378;6.736;2022-07-17T05:40:11;5.73;;;2.43;;
59998;SDS011;45859;51.378;6.736;2022-07-17T05:42:37;7.43;;;3.00;;
59998;SDS011;45859;51.378;6.736;2022-07-17T05:45:05;5.87;;;2.60;;
59998;SDS011;45859;51.378;6.736;2022-07-17T05:47:31;6.53;;;2.20;;
59998;SDS011;45859;51.378;6.736;2022-07-17T05:49:56;6.30;;;2.33;;
59998;SDS011;45859;51.378;6.736;2022-07-17T05:52:22;4.60;;;2.08;;
59998;SDS011;45859;51.378;6.736;2022-07-17T05:54:48;4.78;;;2.33;;
59998;SDS011;45859;51.378;6.736;2022-07-17T05:57:14;4.78;;;2.30;;
59998;SDS011;45859;51.378;6.736;2022-07-17T05:59:40;5.43;;;2.08;;
59998;SDS011;45859;51.378;6.736;2022-07-17T06:02:06;5.10;;;2.08;;
59998;SDS011;45859;51.378;6.736;2022-07-17T06:04:32;5.55;;;2.25;;
59998;SDS011;45859;51.378;6.736;2022-07-17T06:06:57;3.40;;;1.60;;
59998;SDS011;45859;51.378;6.736;2022-07-17T06:09:23;5.22;;;1.85;;
59998;SDS011;45859;51.378;6.736;2022-07-17T06:11:49;2.47;;;1.80;;
59998;SDS011;45859;51.378;6.736;2022-07-17T06:14:15;2.95;;;1.58;;
59998;SDS011;45859;51.378;6.736;2022-07-17T06:16:41;4.25;;;1.50;;
59998;SDS011;45859;51.378;6.736;2022-07-17T06:19:06;3.53;;;1.40;;
59998;SDS011;45859;51.378;6.736;2022-07-17T06:21:32;5.63;;;1.30;;
59998;SDS011;45859;51.378;6.736;2022-07-17T06:23:58;4.53;;;1.58;;
59998;SDS011;45859;51.378;6.736;2022-07-17T06:26:23;4.60;;;1.65;;
59998;SDS011;45859;51.378;6.736;2022-07-17T06:28:49;6.70;;;1.58;;
59998;SDS011;45859;51.378;6.736;2022-07-17T06:31:15;2.78;;;1.35;;
59998;SDS011;45859;51.378;6.736;2022-07-17T06:33:41;2.65;;;1.55;;
59998;SDS011;45859;51.378;6.736;2022-07-17T06:36:07;2.55;;;1.45;;
59998;SDS011;45859;51.378;6.736;2022-07-17T06:38:33;4.65;;;1.40;;
59998;SDS011;45859;51.378;6.736;2022-07-17T06:40:59;3.28;;;1.38;;
59998;SDS011;45859;51.378;6.736;2022-07-17T06:43:25;5.22;;;1.45;;
59998;SDS011;45859;51.378;6.736;2022-07-17T06:45:51;5.15;;;1.60;;
59998;SDS011;45859;51.378;6.736;2022-07-17T06:48:19;3.42;;;1.38;;
59998;SDS011;45859;51.378;6.736;2022-07-17T06:50:45;4.38;;;1.20;;
59998;SDS011;45859;51.378;6.736;2022-07-17T06:53:11;2.72;;;1.15;;
59998;SDS011;45859;51.378;6.736;2022-07-17T06:55:37;4.90;;;1.23;;
59998;SDS011;45859;51.378;6.736;2022-07-17T06:58:03;2.63;;;1.20;;
59998;SDS011;45859;51.378;6.736;2022-07-17T07:00:29;3.42;;;1.20;;
59998;SDS011;45859;51.378;6.736;2022-07-17T07:02:55;3.40;;;1.05;;
59998;SDS011;45859;51.378;6.736;2022-07-17T07:05:21;5.80;;;1.42;;
59998;SDS011;45859;51.378;6.736;2022-07-17T07:07:47;2.08;;;1.20;;
59998;SDS011;45859;51.378;6.736;2022-07-17T07:10:12;4.90;;;1.40;;
59998;SDS011;45859;51.378;6.736;2022-07-17T07:12:38;4.57;;;1.30;;
59998;SDS011;45859;51.378;6.736;2022-07-17T07:15:04;4.22;;;1.48;;
59998;SDS011;45859;51.378;6.736;2022-07-17T07:17:30;1.98;;;1.17;;
59998;SDS011;45859;51.378;6.736;2022-07-17T07:19:58;4.78;;;0.95;;
59998;SDS011;45859;51.378;6.736;2022-07-17T07:22:25;2.60;;;1.20;;
59998;SDS011;45859;51.378;6.736;2022-07-17T07:24:50;5.82;;;1.23;;
59998;SDS011;45859;51.378;6.736;2022-07-17T07:27:16;2.65;;;0.90;;
59998;SDS011;45859;51.378;6.736;2022-07-17T07:29:42;3.80;;;1.30;;
59998;SDS011;45859;51.378;6.736;2022-07-17T07:32:07;2.95;;;1.00;;
59998;SDS011;45859;51.378;6.736;2022-07-17T07:34:33;3.90;;;1.13;;
59998;SDS011;45859;51.378;6.736;2022-07-17T07:36:59;2.65;;;1.00;;
59998;SDS011;45859;51.378;6.736;2022-07-17T07:39:25;5.95;;;1.60;;
59998;SDS011;45859;51.378;6.736;2022-07-17T07:41:50;4.13;;;1.27;;
59998;SDS011;45859;51.378;6.736;2022-07-17T07:44:16;2.88;;;0.98;;
59998;SDS011;45859;51.378;6.736;2022-07-17T07:46:43;3.30;;;1.08;;
59998;SDS011;45859;51.378;6.736;2022-07-17T07:49:09;3.55;;;1.10;;
59998;SDS011;45859;51.378;6.736;2022-07-17T07:51:34;3.33;;;1.08;;
59998;SDS011;45859;51.378;6.736;2022-07-17T07:54:00;2.65;;;1.20;;
59998;SDS011;45859;51.378;6.736;2022-07-17T07:56:26;3.15;;;1.00;;
59998;SDS011;45859;51.378;6.736;2022-07-17T07:58:52;3.08;;;1.27;;
59998;SDS011;45859;51.378;6.736;2022-07-17T08:01:17;4.25;;;2.10;;
59998;SDS011;45859;51.378;6.736;2022-07-17T08:03:43;7.32;;;2.95;;
59998;SDS011;45859;51.378;6.736;2022-07-17T08:06:09;5.32;;;2.55;;
59998;SDS011;45859;51.378;6.736;2022-07-17T08:08:35;9.00;;;2.83;;
59998;SDS011;45859;51.378;6.736;2022-07-17T08:11:00;6.45;;;2.80;;
59998;SDS011;45859;51.378;6.736;2022-07-17T08:13:26;7.40;;;3.28;;
59998;SDS011;45859;51.378;6.736;2022-07-17T08:15:52;5.88;;;2.50;;
59998;SDS011;45859;51.378;6.736;2022-07-17T08:18:17;6.63;;;1.42;;
59998;SDS011;45859;51.378;6.736;2022-07-17T08:20:43;6.22;;;1.98;;
59998;SDS011;45859;51.378;6.736;2022-07-17T08:23:09;2.88;;;1.17;;
59998;SDS011;45859;51.378;6.736;2022-07-17T08:28:11;6.93;;;2.00;;
59998;SDS011;45859;51.378;6.736;2022-07-17T08:30:37;6.75;;;2.20;;
59998;SDS011;45859;51.378;6.736;2022-07-17T08:33:04;7.53;;;2.22;;
59998;SDS011;45859;51.378;6.736;2022-07-17T08:35:31;8.93;;;3.20;;
59998;SDS011;45859;51.378;6.736;2022-07-17T08:37:57;10.38;;;2.92;;
59998;SDS011;45859;51.378;6.736;2022-07-17T08:40:27;16.70;;;4.35;;
59998;SDS011;45859;51.378;6.736;2022-07-17T08:42:55;13.85;;;4.30;;
59998;SDS011;45859;51.378;6.736;2022-07-17T08:45:22;10.68;;;3.45;;
59998;SDS011;45859;51.378;6.736;2022-07-17T08:47:50;8.77;;;3.10;;
59998;SDS011;45859;51.378;6.736;2022-07-17T08:50:33;13.75;;;3.67;;
59998;SDS011;45859;51.378;6.736;2022-07-17T08:53:00;12.38;;;3.78;;
59998;SDS011;45859;51.378;6.736;2022-07-17T08:55:29;10.35;;;3.28;;
59998;SDS011;45859;51.378;6.736;2022-07-17T08:57:55;8.73;;;2.65;;
59998;SDS011;45859;51.378;6.736;2022-07-17T09:00:22;7.32;;;2.72;;
59998;SDS011;45859;51.378;6.736;2022-07-17T09:02:56;9.88;;;2.88;;
59998;SDS011;45859;51.378;6.736;2022-07-17T09:05:34;9.52;;;2.70;;
59998;SDS011;45859;51.378;6.736;2022-07-17T09:08:01;8.05;;;2.65;;
59998;SDS011;45859;51.378;6.736;2022-07-17T09:15:50;6.30;;;3.45;;
59998;SDS011;45859;51.378;6.736;2022-07-17T09:18:19;8.25;;;2.85;;
59998;SDS011;45859;51.378;6.736;2022-07-17T09:20:46;7.45;;;2.00;;
59998;SDS011;45859;51.378;6.736;2022-07-17T09:23:12;5.05;;;1.65;;
59998;SDS011;45859;51.378;6.736;2022-07-17T09:25:39;10.38;;;2.67;;
59998;SDS011;45859;51.378;6.736;2022-07-17T09:28:08;7.53;;;2.47;;
59998;SDS011;45859;51.378;6.736;2022-07-17T09:30:36;4.70;;;1.95;;
59998;SDS011;45859;51.378;6.736;2022-07-17T09:33:12;5.40;;;1.98;;
59998;SDS011;45859;51.378;6.736;2022-07-17T09:38:26;4.00;;;1.73;;
59998;SDS011;45859;51.378;6.736;2022-07-17T09:41:06;6.88;;;2.28;;
59998;SDS011;45859;51.378;6.736;2022-07-17T09:46:21;6.05;;;2.28;;
59998;SDS011;45859;51.378;6.736;2022-07-17T09:48:50;8.20;;;2.08;;
59998;SDS011;45859;51.378;6.736;2022-07-17T09:51:21;4.15;;;1.50;;
59998;SDS011;45859;51.378;6.736;2022-07-17T09:53:49;6.75;;;1.90;;
59998;SDS011;45859;51.378;6.736;2022-07-17T09:56:18;7.38;;;2.40;;
59998;SDS011;45859;51.378;6.736;2022-07-17T09:58:52;6.40;;;2.75;;
59998;SDS011;45859;51.378;6.736;2022-07-17T10:01:22;7.05;;;2.50;;
59998;SDS011;45859;51.378;6.736;2022-07-17T10:03:48;7.22;;;2.47;;
59998;SDS011;45859;51.378;6.736;2022-07-17T10:06:16;10.43;;;3.08;;
59998;SDS011;45859;51.378;6.736;2022-07-17T10:08:42;8.45;;;3.30;;
59998;SDS011;45859;51.378;6.736;2022-07-17T10:11:08;6.60;;;2.22;;
59998;SDS011;45859;51.378;6.736;2022-07-17T10:13:39;5.60;;;2.00;;
59998;SDS011;45859;51.378;6.736;2022-07-17T10:18:38;6.53;;;2.25;;
59998;SDS011;45859;51.378;6.736;2022-07-17T10:23:35;7.43;;;2.15;;
59998;SDS011;45859;51.378;6.736;2022-07-17T10:26:31;7.07;;;2.13;;
59998;SDS011;45859;51.378;6.736;2022-07-17T10:28:58;7.90;;;2.35;;
59998;SDS011;45859;51.378;6.736;2022-07-17T10:31:27;5.43;;;1.65;;
59998;SDS011;45859;51.378;6.736;2022-07-17T10:34:02;4.30;;;2.00;;
59998;SDS011;45859;51.378;6.736;2022-07-17T10:36:36;5.20;;;1.90;;
59998;SDS011;45859;51.378;6.736;2022-07-17T10:39:13;6.22;;;2.30;;
59998;SDS011;45859;51.378;6.736;2022-07-17T10:41:42;6.65;;;2.30;;
59998;SDS011;45859;51.378;6.736;2022-07-17T10:44:29;6.75;;;2.10;;
59998;SDS011;45859;51.378;6.736;2022-07-17T10:47:02;5.18;;;2.42;;
59998;SDS011;45859;51.378;6.736;2022-07-17T10:49:32;5.32;;;1.85;;
59998;SDS011;45859;51.378;6.736;2022-07-17T10:52:00;6.65;;;2.10;;
59998;SDS011;45859;51.378;6.736;2022-07-17T10:54:32;6.40;;;2.00;;
59998;SDS011;45859;51.378;6.736;2022-07-17T10:57:00;5.68;;;1.70;;
59998;SDS011;45859;51.378;6.736;2022-07-17T10:59:26;6.35;;;2.25;;
59998;SDS011;45859;51.378;6.736;2022-07-17T11:01:56;6.28;;;2.17;;
59998;SDS011;45859;51.378;6.736;2022-07-17T11:06:48;4.10;;;1.60;;
59998;SDS011;45859;51.378;6.736;2022-07-17T11:09:14;4.03;;;2.00;;
59998;SDS011;45859;51.378;6.736;2022-07-17T11:11:43;5.68;;;2.30;;
59998;SDS011;45859;51.378;6.736;2022-07-17T11:14:15;6.13;;;2.15;;
59998;SDS011;45859;51.378;6.736;2022-07-17T11:16:55;4.43;;;1.63;;
59998;SDS011;45859;51.378;6.736;2022-07-17T11:19:27;3.90;;;1.85;;
59998;SDS011;45859;51.378;6.736;2022-07-17T11:21:56;8.73;;;2.67;;
59998;SDS011;45859;51.378;6.736;2022-07-17T11:24:23;8.15;;;2.42;;
59998;SDS011;45859;51.378;6.736;2022-07-17T11:26:51;7.25;;;1.95;;
59998;SDS011;45859;51.378;6.736;2022-07-17T11:29:17;6.78;;;2.60;;
59998;SDS011;45859;51.378;6.736;2022-07-17T11:31:44;5.85;;;2.08;;
59998;SDS011;45859;51.378;6.736;2022-07-17T11:34:10;5.65;;;1.70;;
59998;SDS011;45859;51.378;6.736;2022-07-17T11:36:38;5.38;;;1.58;;
59998;SDS011;45859;51.378;6.736;2022-07-17T11:39:13;2.78;;;1.42;;
59998;SDS011;45859;51.378;6.736;2022-07-17T11:41:42;6.60;;;1.83;;
59998;SDS011;45859;51.378;6.736;2022-07-17T11:44:10;4.40;;;1.83;;
59998;SDS011;45859;51.378;6.736;2022-07-17T11:46:37;3.15;;;1.85;;
59998;SDS011;45859;51.378;6.736;2022-07-17T11:49:05;6.25;;;1.80;;
59998;SDS011;45859;51.378;6.736;2022-07-17T11:51:35;6.20;;;2.25;;
59998;SDS011;45859;51.378;6.736;2022-07-17T11:54:03;3.75;;;1.40;;
59998;SDS011;45859;51.378;6.736;2022-07-17T11:56:33;4.95;;;1.67;;
59998;SDS011;45859;51.378;6.736;2022-07-17T11:59:00;6.72;;;1.40;;
59998;SDS011;45859;51.378;6.736;2022-07-17T12:01:29;4.82;;;1.70;;
59998;SDS011;45859;51.378;6.736;2022-07-17T12:04:03;4.47;;;1.73;;
59998;SDS011;45859;51.378;6.736;2022-07-17T12:06:29;3.95;;;1.67;;
59998;SDS011;45859;51.378;6.736;2022-07-17T12:08:58;3.15;;;1.20;;
59998;SDS011;45859;51.378;6.736;2022-07-17T12:11:23;4.22;;;1.58;;
59998;SDS011;45859;51.378;6.736;2022-07-17T12:13:49;6.07;;;1.55;;
59998;SDS011;45859;51.378;6.736;2022-07-17T12:16:19;2.97;;;1.40;;
59998;SDS011;45859;51.378;6.736;2022-07-17T12:18:57;4.53;;;1.50;;
59998;SDS011;45859;51.378;6.736;2022-07-17T12:21:47;3.10;;;1.15;;
59998;SDS011;45859;51.378;6.736;2022-07-17T12:24:19;4.45;;;1.60;;
59998;SDS011;45859;51.378;6.736;2022-07-17T12:26:45;2.47;;;1.50;;
59998;SDS011;45859;51.378;6.736;2022-07-17T12:29:11;4.65;;;1.48;;
59998;SDS011;45859;51.378;6.736;2022-07-17T12:31:37;4.85;;;1.60;;
59998;SDS011;45859;51.378;6.736;2022-07-17T12:34:02;4.38;;;1.70;;
59998;SDS011;45859;51.378;6.736;2022-07-17T12:36:28;2.10;;;1.23;;
59998;SDS011;45859;51.378;6.736;2022-07-17T12:38:54;4.05;;;1.65;;
59998;SDS011;45859;51.378;6.736;2022-07-17T12:41:20;3.55;;;1.95;;
59998;SDS011;45859;51.378;6.736;2022-07-17T12:43:46;4.93;;;1.48;;
59998;SDS011;45859;51.378;6.736;2022-07-17T12:46:12;6.65;;;1.63;;
59998;SDS011;45859;51.378;6.736;2022-07-17T12:48:38;3.38;;;1.60;;
59998;SDS011;45859;51.378;6.736;2022-07-17T12:51:05;3.22;;;1.50;;
59998;SDS011;45859;51.378;6.736;2022-07-17T12:53:32;5.50;;;1.85;;
59998;SDS011;45859;51.378;6.736;2022-07-17T12:56:00;3.83;;;1.38;;
59998;SDS011;45859;51.378;6.736;2022-07-17T12:58:26;2.60;;;1.27;;
59998;SDS011;45859;51.378;6.736;2022-07-17T13:00:52;6.00;;;1.83;;
59998;SDS011;45859;51.378;6.736;2022-07-17T13:03:18;4.57;;;1.75;;
59998;SDS011;45859;51.378;6.736;2022-07-17T13:05:44;3.55;;;1.70;;
59998;SDS011;45859;51.378;6.736;2022-07-17T13:08:09;4.78;;;1.88;;
59998;SDS011;45859;51.378;6.736;2022-07-17T13:10:35;4.38;;;1.83;;
59998;SDS011;45859;51.378;6.736;2022-07-17T13:13:01;4.55;;;1.58;;
59998;SDS011;45859;51.378;6.736;2022-07-17T13:15:27;6.20;;;1.35;;
59998;SDS011;45859;51.378;6.736;2022-07-17T13:17:52;4.05;;;1.70;;
59998;SDS011;45859;51.378;6.736;2022-07-17T13:20:18;4.82;;;1.65;;
59998;SDS011;45859;51.378;6.736;2022-07-17T13:22:44;3.97;;;1.83;;
59998;SDS011;45859;51.378;6.736;2022-07-17T13:25:10;4.50;;;2.30;;
59998;SDS011;45859;51.378;6.736;2022-07-17T13:27:35;7.80;;;2.00;;
59998;SDS011;45859;51.378;6.736;2022-07-17T13:30:02;8.63;;;2.50;;
59998;SDS011;45859;51.378;6.736;2022-07-17T13:32:28;5.43;;;2.22;;
59998;SDS011;45859;51.378;6.736;2022-07-17T13:34:54;6.35;;;2.20;;
59998;SDS011;45859;51.378;6.736;2022-07-17T13:37:19;7.00;;;2.60;;
59998;SDS011;45859;51.378;6.736;2022-07-17T13:39:45;5.88;;;2.78;;
59998;SDS011;45859;51.378;6.736;2022-07-17T13:42:11;4.97;;;2.38;;
59998;SDS011;45859;51.378;6.736;2022-07-17T13:44:38;11.05;;;2.53;;
59998;SDS011;45859;51.378;6.736;2022-07-17T13:47:03;6.57;;;2.80;;
59998;SDS011;45859;51.378;6.736;2022-07-17T13:49:29;6.10;;;2.35;;
59998;SDS011;45859;51.378;6.736;2022-07-17T13:51:55;4.47;;;2.10;;
59998;SDS011;45859;51.378;6.736;2022-07-17T13:54:21;6.75;;;2.65;;
59998;SDS011;45859;51.378;6.736;2022-07-17T13:56:47;6.40;;;2.13;;
59998;SDS011;45859;51.378;6.736;2022-07-17T13:59:12;5.05;;;2.30;;
59998;SDS011;45859;51.378;6.736;2022-07-17T14:01:38;6.28;;;2.55;;
59998;SDS011;45859;51.378;6.736;2022-07-17T14:04:04;7.40;;;2.78;;
59998;SDS011;45859;51.378;6.736;2022-07-17T14:06:30;9.88;;;3.38;;
59998;SDS011;45859;51.378;6.736;2022-07-17T14:08:55;7.65;;;3.10;;
59998;SDS011;45859;51.378;6.736;2022-07-17T14:11:21;5.22;;;2.75;;
59998;SDS011;45859;51.378;6.736;2022-07-17T14:13:47;6.63;;;2.90;;
59998;SDS011;45859;51.378;6.736;2022-07-17T14:16:12;9.90;;;3.08;;
59998;SDS011;45859;51.378;6.736;2022-07-17T14:18:38;7.82;;;3.28;;
59998;SDS011;45859;51.378;6.736;2022-07-17T14:21:23;7.50;;;3.30;;
59998;SDS011;45859;51.378;6.736;2022-07-17T14:23:53;5.05;;;3.10;;
59998;SDS011;45859;51.378;6.736;2022-07-17T14:26:19;6.82;;;3.00;;
59998;SDS011;45859;51.378;6.736;2022-07-17T14:28:45;10.35;;;3.22;;
59998;SDS011;45859;51.378;6.736;2022-07-17T14:31:10;8.85;;;3.42;;
59998;SDS011;45859;51.378;6.736;2022-07-17T14:33:36;7.00;;;3.08;;
59998;SDS011;45859;51.378;6.736;2022-07-17T14:36:02;7.63;;;3.40;;
59998;SDS011;45859;51.378;6.736;2022-07-17T14:38:28;6.68;;;2.97;;
59998;SDS011;45859;51.378;6.736;2022-07-17T14:40:54;6.57;;;2.97;;
59998;SDS011;45859;51.378;6.736;2022-07-17T14:43:24;7.35;;;2.97;;
59998;SDS011;45859;51.378;6.736;2022-07-17T14:46:05;6.03;;;3.22;;
59998;SDS011;45859;51.378;6.736;2022-07-17T14:48:31;5.70;;;3.00;;
59998;SDS011;45859;51.378;6.736;2022-07-17T14:50:57;6.70;;;3.15;;
59998;SDS011;45859;51.378;6.736;2022-07-17T14:53:23;6.20;;;2.80;;
59998;SDS011;45859;51.378;6.736;2022-07-17T14:55:48;6.82;;;2.95;;
59998;SDS011;45859;51.378;6.736;2022-07-17T14:58:14;5.13;;;2.85;;
59998;SDS011;45859;51.378;6.736;2022-07-17T15:00:40;6.55;;;2.95;;
59998;SDS011;45859;51.378;6.736;2022-07-17T15:03:06;6.88;;;2.50;;
59998;SDS011;45859;51.378;6.736;2022-07-17T15:05:31;8.02;;;2.92;;
59998;SDS011;45859;51.378;6.736;2022-07-17T15:07:57;5.10;;;2.80;;
59998;SDS011;45859;51.378;6.736;2022-07-17T15:10:23;5.57;;;2.75;;